MTV weather

Mota Lava Airport
Ablow, Torba, Vanuatu

Public forecast

Using degrees Celsius for public forecast. Weather courtesy of forecast.io.

Closest aviation weather report (METAR) to Mota Lava Airport

Closest report is Sola Airport, 15.1 nm (28.0 km) SW. Retrieved 2020/01/21 00:00 UTC (2 hours ago):

NVSC 210000Z AUTO 03003KT //// // NCD 30/28 Q1011

Closest aviation forecast (TAF) to Mota Lava Airport

Closest forecast is Sola Airport, 15.1 nm (28.0 km) SW. Retrieved 2020-01-21 00:23 UTC (1 hour ago):

TAF NVSC 202220Z 2100/2124 12006KT 9999 SCT020 BKN040 INTER 2100/2106 9000 -SHRA BKN018